sensor_id;sensor_type;location;lat;lon;timestamp;P1;durP1;ratioP1;P2;durP2;ratioP2
13014;SDS011;6573;57.696;11.950;2022-10-04T00:01:46;5.77;;;1.70;;
13014;SDS011;6573;57.696;11.950;2022-10-04T00:04:18;9.80;;;2.60;;
13014;SDS011;6573;57.696;11.950;2022-10-04T00:06:54;10.50;;;2.03;;
13014;SDS011;6573;57.696;11.950;2022-10-04T00:09:27;6.37;;;1.83;;
13014;SDS011;6573;57.696;11.950;2022-10-04T00:12:01;6.53;;;2.00;;
13014;SDS011;6573;57.696;11.950;2022-10-04T00:14:34;7.20;;;1.93;;
13014;SDS011;6573;57.696;11.950;2022-10-04T00:17:07;5.17;;;1.90;;
13014;SDS011;6573;57.696;11.950;2022-10-04T00:19:40;8.50;;;2.70;;
13014;SDS011;6573;57.696;11.950;2022-10-04T00:22:15;10.83;;;2.23;;
13014;SDS011;6573;57.696;11.950;2022-10-04T00:31:06;7.73;;;1.83;;
13014;SDS011;6573;57.696;11.950;2022-10-04T00:33:40;8.57;;;2.33;;
13014;SDS011;6573;57.696;11.950;2022-10-04T00:39:17;5.00;;;1.90;;
13014;SDS011;6573;57.696;11.950;2022-10-04T00:41:55;4.17;;;1.47;;
13014;SDS011;6573;57.696;11.950;2022-10-04T00:44:32;5.20;;;1.70;;
13014;SDS011;6573;57.696;11.950;2022-10-04T00:47:13;5.80;;;1.83;;
13014;SDS011;6573;57.696;11.950;2022-10-04T00:49:51;5.10;;;1.70;;
13014;SDS011;6573;57.696;11.950;2022-10-04T00:52:26;9.73;;;2.50;;
13014;SDS011;6573;57.696;11.950;2022-10-04T00:54:57;8.70;;;1.97;;
13014;SDS011;6573;57.696;11.950;2022-10-04T00:57:30;8.67;;;1.70;;
13014;SDS011;6573;57.696;11.950;2022-10-04T01:00:03;6.17;;;1.80;;
13014;SDS011;6573;57.696;11.950;2022-10-04T01:02:45;6.03;;;1.80;;
13014;SDS011;6573;57.696;11.950;2022-10-04T01:05:19;6.60;;;1.77;;
13014;SDS011;6573;57.696;11.950;2022-10-04T01:07:54;6.93;;;1.70;;
13014;SDS011;6573;57.696;11.950;2022-10-04T01:10:27;7.17;;;1.90;;
13014;SDS011;6573;57.696;11.950;2022-10-04T01:12:59;16.73;;;2.63;;
13014;SDS011;6573;57.696;11.950;2022-10-04T01:15:35;16.67;;;2.40;;
13014;SDS011;6573;57.696;11.950;2022-10-04T01:18:12;17.23;;;2.80;;
13014;SDS011;6573;57.696;11.950;2022-10-04T01:20:48;22.83;;;3.23;;
13014;SDS011;6573;57.696;11.950;2022-10-04T01:23:35;22.90;;;4.27;;
13014;SDS011;6573;57.696;11.950;2022-10-04T01:29:09;38.43;;;5.93;;
13014;SDS011;6573;57.696;11.950;2022-10-04T01:31:43;37.47;;;5.43;;
13014;SDS011;6573;57.696;11.950;2022-10-04T01:34:14;36.40;;;4.80;;
13014;SDS011;6573;57.696;11.950;2022-10-04T01:36:44;49.37;;;5.53;;
13014;SDS011;6573;57.696;11.950;2022-10-04T01:39:15;45.03;;;5.80;;
13014;SDS011;6573;57.696;11.950;2022-10-04T01:41:46;58.90;;;6.70;;
13014;SDS011;6573;57.696;11.950;2022-10-04T01:44:23;50.07;;;6.73;;
13014;SDS011;6573;57.696;11.950;2022-10-04T01:46:58;74.43;;;9.53;;
13014;SDS011;6573;57.696;11.950;2022-10-04T01:49:29;57.23;;;6.30;;
13014;SDS011;6573;57.696;11.950;2022-10-04T01:52:01;38.03;;;6.17;;
13014;SDS011;6573;57.696;11.950;2022-10-04T01:54:36;38.30;;;6.17;;
13014;SDS011;6573;57.696;11.950;2022-10-04T01:57:10;44.53;;;7.07;;
13014;SDS011;6573;57.696;11.950;2022-10-04T01:59:43;32.50;;;6.03;;
13014;SDS011;6573;57.696;11.950;2022-10-04T02:02:20;34.93;;;6.07;;
13014;SDS011;6573;57.696;11.950;2022-10-04T02:04:55;34.63;;;6.50;;
13014;SDS011;6573;57.696;11.950;2022-10-04T02:07:27;28.47;;;6.23;;
13014;SDS011;6573;57.696;11.950;2022-10-04T02:09:59;28.30;;;6.40;;
13014;SDS011;6573;57.696;11.950;2022-10-04T02:12:30;28.63;;;6.40;;
13014;SDS011;6573;57.696;11.950;2022-10-04T02:15:01;34.57;;;6.77;;
13014;SDS011;6573;57.696;11.950;2022-10-04T02:17:39;33.00;;;6.87;;
13014;SDS011;6573;57.696;11.950;2022-10-04T02:20:10;42.87;;;8.10;;
13014;SDS011;6573;57.696;11.950;2022-10-04T02:22:42;50.13;;;7.50;;
13014;SDS011;6573;57.696;11.950;2022-10-04T02:25:13;51.40;;;7.97;;
13014;SDS011;6573;57.696;11.950;2022-10-04T02:27:45;51.40;;;8.67;;
13014;SDS011;6573;57.696;11.950;2022-10-04T02:30:14;44.00;;;7.60;;
13014;SDS011;6573;57.696;11.950;2022-10-04T02:32:42;34.33;;;6.53;;
13014;SDS011;6573;57.696;11.950;2022-10-04T02:35:26;32.90;;;6.23;;
13014;SDS011;6573;57.696;11.950;2022-10-04T02:38:05;31.03;;;5.90;;
13014;SDS011;6573;57.696;11.950;2022-10-04T02:40:39;36.23;;;6.30;;
13014;SDS011;6573;57.696;11.950;2022-10-04T02:43:14;31.23;;;6.13;;
13014;SDS011;6573;57.696;11.950;2022-10-04T02:45:47;22.77;;;5.27;;
13014;SDS011;6573;57.696;11.950;2022-10-04T02:48:27;33.37;;;5.20;;
13014;SDS011;6573;57.696;11.950;2022-10-04T02:51:05;61.87;;;8.40;;
13014;SDS011;6573;57.696;11.950;2022-10-04T02:53:45;36.13;;;7.80;;
13014;SDS011;6573;57.696;11.950;2022-10-04T02:56:21;23.80;;;5.33;;
13014;SDS011;6573;57.696;11.950;2022-10-04T02:58:51;24.00;;;5.40;;
13014;SDS011;6573;57.696;11.950;2022-10-04T03:01:24;23.77;;;6.53;;
13014;SDS011;6573;57.696;11.950;2022-10-04T03:03:54;24.93;;;6.37;;
13014;SDS011;6573;57.696;11.950;2022-10-04T03:06:26;29.20;;;5.77;;
13014;SDS011;6573;57.696;11.950;2022-10-04T03:08:59;35.07;;;5.83;;
13014;SDS011;6573;57.696;11.950;2022-10-04T03:11:32;29.10;;;5.67;;
13014;SDS011;6573;57.696;11.950;2022-10-04T03:14:03;24.57;;;5.97;;
13014;SDS011;6573;57.696;11.950;2022-10-04T03:16:35;35.97;;;7.80;;
13014;SDS011;6573;57.696;11.950;2022-10-04T03:19:05;28.40;;;5.53;;
13014;SDS011;6573;57.696;11.950;2022-10-04T03:21:35;29.13;;;6.77;;
13014;SDS011;6573;57.696;11.950;2022-10-04T03:24:08;28.53;;;6.47;;
13014;SDS011;6573;57.696;11.950;2022-10-04T03:26:44;32.87;;;6.40;;
13014;SDS011;6573;57.696;11.950;2022-10-04T03:29:15;33.87;;;6.33;;
13014;SDS011;6573;57.696;11.950;2022-10-04T03:31:46;28.73;;;5.60;;
13014;SDS011;6573;57.696;11.950;2022-10-04T03:34:18;29.30;;;5.47;;
13014;SDS011;6573;57.696;11.950;2022-10-04T03:36:48;24.33;;;5.53;;
13014;SDS011;6573;57.696;11.950;2022-10-04T03:39:23;23.83;;;5.50;;
13014;SDS011;6573;57.696;11.950;2022-10-04T03:41:56;28.87;;;5.73;;
13014;SDS011;6573;57.696;11.950;2022-10-04T03:44:26;26.63;;;5.67;;
13014;SDS011;6573;57.696;11.950;2022-10-04T03:46:54;25.07;;;5.07;;
13014;SDS011;6573;57.696;11.950;2022-10-04T03:49:24;24.80;;;5.40;;
13014;SDS011;6573;57.696;11.950;2022-10-04T03:51:59;28.00;;;5.53;;
13014;SDS011;6573;57.696;11.950;2022-10-04T03:54:29;24.67;;;5.70;;
13014;SDS011;6573;57.696;11.950;2022-10-04T03:57:01;32.37;;;5.47;;
13014;SDS011;6573;57.696;11.950;2022-10-04T03:59:30;33.83;;;5.30;;
13014;SDS011;6573;57.696;11.950;2022-10-04T04:02:02;35.73;;;5.97;;
13014;SDS011;6573;57.696;11.950;2022-10-04T04:04:35;30.00;;;5.70;;
13014;SDS011;6573;57.696;11.950;2022-10-04T04:07:10;25.80;;;5.60;;
13014;SDS011;6573;57.696;11.950;2022-10-04T04:09:44;19.97;;;4.50;;
13014;SDS011;6573;57.696;11.950;2022-10-04T04:12:19;24.17;;;5.00;;
13014;SDS011;6573;57.696;11.950;2022-10-04T04:14:53;27.63;;;4.90;;
13014;SDS011;6573;57.696;11.950;2022-10-04T04:17:29;21.93;;;5.27;;
13014;SDS011;6573;57.696;11.950;2022-10-04T04:20:03;26.03;;;5.87;;
13014;SDS011;6573;57.696;11.950;2022-10-04T04:22:39;21.80;;;4.50;;
13014;SDS011;6573;57.696;11.950;2022-10-04T04:25:15;25.63;;;4.23;;
13014;SDS011;6573;57.696;11.950;2022-10-04T04:27:46;28.20;;;5.90;;
13014;SDS011;6573;57.696;11.950;2022-10-04T04:30:16;25.07;;;4.57;;
13014;SDS011;6573;57.696;11.950;2022-10-04T04:32:46;21.77;;;4.43;;
13014;SDS011;6573;57.696;11.950;2022-10-04T04:35:22;19.63;;;4.37;;
13014;SDS011;6573;57.696;11.950;2022-10-04T04:38:02;18.43;;;4.47;;
13014;SDS011;6573;57.696;11.950;2022-10-04T04:40:38;25.60;;;4.20;;
13014;SDS011;6573;57.696;11.950;2022-10-04T04:43:10;24.37;;;5.10;;
13014;SDS011;6573;57.696;11.950;2022-10-04T04:45:44;22.03;;;5.07;;
13014;SDS011;6573;57.696;11.950;2022-10-04T04:48:35;18.73;;;4.60;;
13014;SDS011;6573;57.696;11.950;2022-10-04T04:51:04;19.60;;;4.63;;
13014;SDS011;6573;57.696;11.950;2022-10-04T04:53:33;16.47;;;3.53;;
13014;SDS011;6573;57.696;11.950;2022-10-04T04:56:02;14.53;;;4.20;;
13014;SDS011;6573;57.696;11.950;2022-10-04T04:58:40;16.70;;;3.50;;
13014;SDS011;6573;57.696;11.950;2022-10-04T05:01:14;16.63;;;3.20;;
13014;SDS011;6573;57.696;11.950;2022-10-04T05:03:58;17.17;;;3.20;;
13014;SDS011;6573;57.696;11.950;2022-10-04T05:06:28;13.57;;;3.70;;
13014;SDS011;6573;57.696;11.950;2022-10-04T05:08:57;13.53;;;3.33;;
13014;SDS011;6573;57.696;11.950;2022-10-04T05:11:26;13.00;;;3.50;;
13014;SDS011;6573;57.696;11.950;2022-10-04T05:13:58;14.40;;;3.67;;
13014;SDS011;6573;57.696;11.950;2022-10-04T05:16:31;16.60;;;3.73;;
13014;SDS011;6573;57.696;11.950;2022-10-04T05:19:05;11.10;;;3.47;;
13014;SDS011;6573;57.696;11.950;2022-10-04T05:21:36;12.67;;;3.23;;
13014;SDS011;6573;57.696;11.950;2022-10-04T05:24:08;15.67;;;4.23;;
13014;SDS011;6573;57.696;11.950;2022-10-04T05:26:40;8.87;;;2.70;;
13014;SDS011;6573;57.696;11.950;2022-10-04T05:29:13;14.37;;;3.00;;
13014;SDS011;6573;57.696;11.950;2022-10-04T05:31:46;13.07;;;3.37;;
13014;SDS011;6573;57.696;11.950;2022-10-04T05:34:22;17.53;;;3.27;;
13014;SDS011;6573;57.696;11.950;2022-10-04T05:36:58;13.77;;;3.27;;
13014;SDS011;6573;57.696;11.950;2022-10-04T05:39:37;14.53;;;2.80;;
13014;SDS011;6573;57.696;11.950;2022-10-04T05:42:11;9.83;;;2.63;;
13014;SDS011;6573;57.696;11.950;2022-10-04T05:44:49;11.93;;;3.17;;
13014;SDS011;6573;57.696;11.950;2022-10-04T05:47:21;17.77;;;3.27;;
13014;SDS011;6573;57.696;11.950;2022-10-04T05:49:52;12.13;;;3.27;;
13014;SDS011;6573;57.696;11.950;2022-10-04T05:52:24;19.57;;;3.60;;
13014;SDS011;6573;57.696;11.950;2022-10-04T05:58:03;13.83;;;3.07;;
13014;SDS011;6573;57.696;11.950;2022-10-04T06:00:48;14.53;;;2.77;;
13014;SDS011;6573;57.696;11.950;2022-10-04T06:03:39;13.27;;;2.63;;
13014;SDS011;6573;57.696;11.950;2022-10-04T06:06:19;12.80;;;2.80;;
13014;SDS011;6573;57.696;11.950;2022-10-04T06:08:55;18.20;;;3.30;;
13014;SDS011;6573;57.696;11.950;2022-10-04T06:11:36;19.17;;;3.33;;
13014;SDS011;6573;57.696;11.950;2022-10-04T06:14:21;14.63;;;3.10;;
13014;SDS011;6573;57.696;11.950;2022-10-04T06:17:20;14.10;;;3.87;;
13014;SDS011;6573;57.696;11.950;2022-10-04T06:20:01;16.90;;;2.80;;
13014;SDS011;6573;57.696;11.950;2022-10-04T06:22:54;25.33;;;3.30;;
13014;SDS011;6573;57.696;11.950;2022-10-04T06:25:28;22.63;;;3.80;;
13014;SDS011;6573;57.696;11.950;2022-10-04T06:28:03;27.53;;;3.93;;
13014;SDS011;6573;57.696;11.950;2022-10-04T06:30:49;15.13;;;3.37;;
13014;SDS011;6573;57.696;11.950;2022-10-04T06:33:35;18.60;;;3.30;;
13014;SDS011;6573;57.696;11.950;2022-10-04T06:36:24;16.83;;;3.30;;
13014;SDS011;6573;57.696;11.950;2022-10-04T06:39:19;24.37;;;3.53;;
13014;SDS011;6573;57.696;11.950;2022-10-04T06:42:06;18.53;;;3.73;;
13014;SDS011;6573;57.696;11.950;2022-10-04T06:44:55;21.93;;;3.40;;
13014;SDS011;6573;57.696;11.950;2022-10-04T06:47:40;17.17;;;3.70;;
13014;SDS011;6573;57.696;11.950;2022-10-04T06:50:26;17.90;;;3.33;;
13014;SDS011;6573;57.696;11.950;2022-10-04T06:53:11;12.40;;;3.10;;
13014;SDS011;6573;57.696;11.950;2022-10-04T06:55:59;14.87;;;3.47;;
13014;SDS011;6573;57.696;11.950;2022-10-04T06:58:52;21.50;;;3.73;;
13014;SDS011;6573;57.696;11.950;2022-10-04T07:01:31;15.53;;;3.50;;
13014;SDS011;6573;57.696;11.950;2022-10-04T07:04:03;18.70;;;3.67;;
13014;SDS011;6573;57.696;11.950;2022-10-04T07:06:47;14.93;;;3.63;;
13014;SDS011;6573;57.696;11.950;2022-10-04T07:09:43;16.03;;;3.70;;
13014;SDS011;6573;57.696;11.950;2022-10-04T07:12:13;12.17;;;3.57;;
13014;SDS011;6573;57.696;11.950;2022-10-04T07:14:44;17.23;;;3.83;;
13014;SDS011;6573;57.696;11.950;2022-10-04T07:17:16;17.60;;;4.10;;
13014;SDS011;6573;57.696;11.950;2022-10-04T07:19:54;13.90;;;3.40;;
13014;SDS011;6573;57.696;11.950;2022-10-04T07:22:28;14.57;;;3.23;;
13014;SDS011;6573;57.696;11.950;2022-10-04T07:25:04;16.83;;;3.50;;
13014;SDS011;6573;57.696;11.950;2022-10-04T07:27:45;11.27;;;3.13;;
13014;SDS011;6573;57.696;11.950;2022-10-04T07:30:42;18.70;;;3.30;;
13014;SDS011;6573;57.696;11.950;2022-10-04T07:33:15;20.17;;;3.77;;
13014;SDS011;6573;57.696;11.950;2022-10-04T07:35:49;18.60;;;4.10;;
13014;SDS011;6573;57.696;11.950;2022-10-04T07:38:27;17.00;;;3.43;;
13014;SDS011;6573;57.696;11.950;2022-10-04T07:41:06;13.57;;;2.80;;
13014;SDS011;6573;57.696;11.950;2022-10-04T07:43:43;14.77;;;3.70;;
13014;SDS011;6573;57.696;11.950;2022-10-04T07:46:16;17.70;;;3.13;;
13014;SDS011;6573;57.696;11.950;2022-10-04T07:48:51;13.43;;;3.47;;
13014;SDS011;6573;57.696;11.950;2022-10-04T07:51:22;13.63;;;3.07;;
13014;SDS011;6573;57.696;11.950;2022-10-04T07:53:59;11.83;;;3.20;;
13014;SDS011;6573;57.696;11.950;2022-10-04T07:56:32;16.07;;;3.10;;
13014;SDS011;6573;57.696;11.950;2022-10-04T07:59:21;18.57;;;2.90;;
13014;SDS011;6573;57.696;11.950;2022-10-04T08:02:01;15.83;;;3.30;;
13014;SDS011;6573;57.696;11.950;2022-10-04T08:04:43;17.17;;;3.30;;
13014;SDS011;6573;57.696;11.950;2022-10-04T08:07:29;12.90;;;3.17;;
13014;SDS011;6573;57.696;11.950;2022-10-04T08:10:15;14.20;;;3.07;;
13014;SDS011;6573;57.696;11.950;2022-10-04T08:12:52;11.53;;;2.60;;
13014;SDS011;6573;57.696;11.950;2022-10-04T08:15:34;15.37;;;2.83;;
13014;SDS011;6573;57.696;11.950;2022-10-04T08:18:11;17.37;;;3.47;;
13014;SDS011;6573;57.696;11.950;2022-10-04T08:20:53;16.07;;;3.10;;
13014;SDS011;6573;57.696;11.950;2022-10-04T08:26:32;15.77;;;4.03;;
13014;SDS011;6573;57.696;11.950;2022-10-04T08:29:23;14.43;;;3.20;;
13014;SDS011;6573;57.696;11.950;2022-10-04T08:32:16;19.03;;;3.57;;
13014;SDS011;6573;57.696;11.950;2022-10-04T08:35:10;13.07;;;3.00;;
13014;SDS011;6573;57.696;11.950;2022-10-04T08:38:00;12.83;;;3.57;;
13014;SDS011;6573;57.696;11.950;2022-10-04T08:50:31;17.10;;;3.40;;
13014;SDS011;6573;57.696;11.950;2022-10-04T08:53:27;12.63;;;2.70;;
13014;SDS011;6573;57.696;11.950;2022-10-04T08:56:23;14.10;;;3.17;;
13014;SDS011;6573;57.696;11.950;2022-10-04T08:59:22;12.73;;;2.80;;
13014;SDS011;6573;57.696;11.950;2022-10-04T09:02:21;9.97;;;2.80;;
13014;SDS011;6573;57.696;11.950;2022-10-04T09:08:16;11.77;;;2.20;;
13014;SDS011;6573;57.696;11.950;2022-10-04T09:11:16;7.40;;;2.03;;
13014;SDS011;6573;57.696;11.950;2022-10-04T09:14:05;6.80;;;2.10;;
13014;SDS011;6573;57.696;11.950;2022-10-04T09:16:44;9.67;;;2.40;;
13014;SDS011;6573;57.696;11.950;2022-10-04T09:19:18;10.47;;;2.23;;
13014;SDS011;6573;57.696;11.950;2022-10-04T09:21:58;7.60;;;2.30;;
13014;SDS011;6573;57.696;11.950;2022-10-04T09:24:55;8.80;;;3.30;;
13014;SDS011;6573;57.696;11.950;2022-10-04T09:27:56;13.80;;;2.97;;
13014;SDS011;6573;57.696;11.950;2022-10-04T09:30:40;11.20;;;3.50;;
13014;SDS011;6573;57.696;11.950;2022-10-04T09:33:22;15.27;;;3.50;;
13014;SDS011;6573;57.696;11.950;2022-10-04T09:36:21;14.00;;;3.33;;
13014;SDS011;6573;57.696;11.950;2022-10-04T09:45:18;12.13;;;2.83;;
13014;SDS011;6573;57.696;11.950;2022-10-04T09:48:19;9.30;;;2.57;;
13014;SDS011;6573;57.696;11.950;2022-10-04T09:50:59;10.00;;;2.80;;
13014;SDS011;6573;57.696;11.950;2022-10-04T09:53:54;10.07;;;2.20;;
13014;SDS011;6573;57.696;11.950;2022-10-04T09:56:34;9.23;;;2.50;;
13014;SDS011;6573;57.696;11.950;2022-10-04T09:59:30;10.60;;;2.20;;
13014;SDS011;6573;57.696;11.950;2022-10-04T10:02:22;10.20;;;1.80;;
13014;SDS011;6573;57.696;11.950;2022-10-04T10:05:17;9.87;;;2.00;;
13014;SDS011;6573;57.696;11.950;2022-10-04T10:07:56;13.67;;;2.40;;
13014;SDS011;6573;57.696;11.950;2022-10-04T10:10:35;11.37;;;2.10;;
13014;SDS011;6573;57.696;11.950;2022-10-04T10:13:38;11.23;;;2.23;;
13014;SDS011;6573;57.696;11.950;2022-10-04T10:16:43;8.53;;;1.90;;
13014;SDS011;6573;57.696;11.950;2022-10-04T10:19:31;8.23;;;1.60;;
13014;SDS011;6573;57.696;11.950;2022-10-04T10:22:21;9.10;;;2.07;;
13014;SDS011;6573;57.696;11.950;2022-10-04T10:25:08;11.80;;;1.93;;
13014;SDS011;6573;57.696;11.950;2022-10-04T10:27:46;11.33;;;2.53;;
13014;SDS011;6573;57.696;11.950;2022-10-04T10:30:20;11.67;;;2.10;;
13014;SDS011;6573;57.696;11.950;2022-10-04T10:33:06;10.77;;;2.60;;
13014;SDS011;6573;57.696;11.950;2022-10-04T10:39:20;12.37;;;2.50;;
13014;SDS011;6573;57.696;11.950;2022-10-04T10:42:22;11.43;;;2.93;;
13014;SDS011;6573;57.696;11.950;2022-10-04T10:45:35;9.03;;;2.77;;
13014;SDS011;6573;57.696;11.950;2022-10-04T10:48:14;9.17;;;2.53;;
13014;SDS011;6573;57.696;11.950;2022-10-04T10:50:53;8.73;;;2.60;;
13014;SDS011;6573;57.696;11.950;2022-10-04T10:56:42;9.90;;;2.20;;
13014;SDS011;6573;57.696;11.950;2022-10-04T11:02:24;11.13;;;2.00;;
13014;SDS011;6573;57.696;11.950;2022-10-04T11:08:51;8.50;;;2.00;;
13014;SDS011;6573;57.696;11.950;2022-10-04T11:11:48;5.80;;;2.40;;
13014;SDS011;6573;57.696;11.950;2022-10-04T11:24:02;7.17;;;2.43;;
13014;SDS011;6573;57.696;11.950;2022-10-04T11:27:18;10.20;;;2.57;;
13014;SDS011;6573;57.696;11.950;2022-10-04T11:30:12;10.43;;;2.60;;
13014;SDS011;6573;57.696;11.950;2022-10-04T11:36:03;12.03;;;3.47;;
13014;SDS011;6573;57.696;11.950;2022-10-04T11:39:01;11.97;;;3.33;;
13014;SDS011;6573;57.696;11.950;2022-10-04T11:41:50;15.87;;;3.50;;
13014;SDS011;6573;57.696;11.950;2022-10-04T11:44:29;11.50;;;3.40;;
13014;SDS011;6573;57.696;11.950;2022-10-04T11:47:13;14.10;;;3.67;;
13014;SDS011;6573;57.696;11.950;2022-10-04T11:49:56;8.20;;;3.77;;
13014;SDS011;6573;57.696;11.950;2022-10-04T11:52:49;13.60;;;3.60;;
13014;SDS011;6573;57.696;11.950;2022-10-04T11:55:55;9.27;;;3.03;;
13014;SDS011;6573;57.696;11.950;2022-10-04T11:58:52;10.87;;;2.73;;
13014;SDS011;6573;57.696;11.950;2022-10-04T12:01:41;13.13;;;3.10;;
13014;SDS011;6573;57.696;11.950;2022-10-04T12:04:30;13.57;;;2.77;;
13014;SDS011;6573;57.696;11.950;2022-10-04T12:10:20;8.97;;;2.80;;
13014;SDS011;6573;57.696;11.950;2022-10-04T12:13:03;11.97;;;3.50;;
13014;SDS011;6573;57.696;11.950;2022-10-04T12:22:14;13.17;;;3.43;;
13014;SDS011;6573;57.696;11.950;2022-10-04T12:31:07;12.40;;;3.07;;
13014;SDS011;6573;57.696;11.950;2022-10-04T12:33:43;12.60;;;2.30;;
13014;SDS011;6573;57.696;11.950;2022-10-04T12:36:23;10.53;;;2.47;;
13014;SDS011;6573;57.696;11.950;2022-10-04T12:39:06;8.80;;;2.47;;
13014;SDS011;6573;57.696;11.950;2022-10-04T12:41:47;11.90;;;2.73;;
13014;SDS011;6573;57.696;11.950;2022-10-04T12:44:30;9.40;;;2.13;;
13014;SDS011;6573;57.696;11.950;2022-10-04T12:47:24;8.50;;;2.00;;
13014;SDS011;6573;57.696;11.950;2022-10-04T12:50:14;7.43;;;2.17;;
13014;SDS011;6573;57.696;11.950;2022-10-04T12:52:53;9.03;;;2.43;;
13014;SDS011;6573;57.696;11.950;2022-10-04T12:55:46;8.67;;;2.20;;
13014;SDS011;6573;57.696;11.950;2022-10-04T12:58:27;11.43;;;2.57;;
13014;SDS011;6573;57.696;11.950;2022-10-04T13:01:10;10.47;;;3.47;;
13014;SDS011;6573;57.696;11.950;2022-10-04T13:04:01;13.13;;;3.03;;
13014;SDS011;6573;57.696;11.950;2022-10-04T13:06:40;13.20;;;3.47;;
13014;SDS011;6573;57.696;11.950;2022-10-04T13:09:19;8.10;;;2.97;;
13014;SDS011;6573;57.696;11.950;2022-10-04T13:12:06;17.17;;;3.70;;
13014;SDS011;6573;57.696;11.950;2022-10-04T13:17:53;8.87;;;3.33;;
13014;SDS011;6573;57.696;11.950;2022-10-04T13:20:36;11.50;;;3.33;;
13014;SDS011;6573;57.696;11.950;2022-10-04T13:23:15;12.80;;;3.27;;
13014;SDS011;6573;57.696;11.950;2022-10-04T13:26:04;12.03;;;3.20;;
13014;SDS011;6573;57.696;11.950;2022-10-04T13:28:43;12.07;;;3.50;;
13014;SDS011;6573;57.696;11.950;2022-10-04T13:31:19;10.37;;;3.10;;
13014;SDS011;6573;57.696;11.950;2022-10-04T13:34:01;9.57;;;3.87;;
13014;SDS011;6573;57.696;11.950;2022-10-04T13:36:44;16.83;;;4.13;;
13014;SDS011;6573;57.696;11.950;2022-10-04T13:39:50;9.87;;;4.03;;
13014;SDS011;6573;57.696;11.950;2022-10-04T13:42:38;12.30;;;3.77;;
13014;SDS011;6573;57.696;11.950;2022-10-04T13:45:24;10.00;;;4.60;;
13014;SDS011;6573;57.696;11.950;2022-10-04T13:48:08;13.23;;;4.30;;
13014;SDS011;6573;57.696;11.950;2022-10-04T13:50:59;10.67;;;3.80;;
13014;SDS011;6573;57.696;11.950;2022-10-04T13:53:43;16.03;;;4.37;;
13014;SDS011;6573;57.696;11.950;2022-10-04T13:59:43;14.77;;;4.00;;
13014;SDS011;6573;57.696;11.950;2022-10-04T14:14:36;11.97;;;3.53;;
13014;SDS011;6573;57.696;11.950;2022-10-04T14:20:54;14.10;;;3.57;;
13014;SDS011;6573;57.696;11.950;2022-10-04T14:23:54;15.00;;;3.30;;
13014;SDS011;6573;57.696;11.950;2022-10-04T14:26:47;11.37;;;3.10;;
13014;SDS011;6573;57.696;11.950;2022-10-04T14:35:42;10.63;;;2.97;;
13014;SDS011;6573;57.696;11.950;2022-10-04T14:41:37;15.40;;;3.10;;
13014;SDS011;6573;57.696;11.950;2022-10-04T14:47:32;12.80;;;3.10;;
13014;SDS011;6573;57.696;11.950;2022-10-04T14:53:01;12.40;;;2.80;;
13014;SDS011;6573;57.696;11.950;2022-10-04T14:55:50;17.27;;;3.37;;
13014;SDS011;6573;57.696;11.950;2022-10-04T14:58:39;10.07;;;2.70;;
13014;SDS011;6573;57.696;11.950;2022-10-04T15:01:18;12.27;;;3.80;;
13014;SDS011;6573;57.696;11.950;2022-10-04T15:06:40;9.67;;;2.60;;
13014;SDS011;6573;57.696;11.950;2022-10-04T15:09:26;15.60;;;3.47;;
13014;SDS011;6573;57.696;11.950;2022-10-04T15:12:23;18.20;;;3.90;;
13014;SDS011;6573;57.696;11.950;2022-10-04T15:15:32;8.80;;;2.67;;
13014;SDS011;6573;57.696;11.950;2022-10-04T15:18:09;12.30;;;3.07;;
13014;SDS011;6573;57.696;11.950;2022-10-04T15:20:49;14.73;;;2.70;;
13014;SDS011;6573;57.696;11.950;2022-10-04T15:23:28;15.77;;;4.30;;
13014;SDS011;6573;57.696;11.950;2022-10-04T15:26:02;18.60;;;3.50;;
13014;SDS011;6573;57.696;11.950;2022-10-04T15:28:55;14.83;;;2.97;;
13014;SDS011;6573;57.696;11.950;2022-10-04T15:31:35;9.73;;;2.60;;
13014;SDS011;6573;57.696;11.950;2022-10-04T15:34:11;7.80;;;2.53;;
13014;SDS011;6573;57.696;11.950;2022-10-04T15:37:02;9.27;;;3.00;;
13014;SDS011;6573;57.696;11.950;2022-10-04T15:39:39;11.00;;;3.27;;
13014;SDS011;6573;57.696;11.950;2022-10-04T15:42:24;13.70;;;3.37;;
13014;SDS011;6573;57.696;11.950;2022-10-04T15:48:00;13.10;;;3.10;;
13014;SDS011;6573;57.696;11.950;2022-10-04T15:50:40;12.60;;;3.23;;
13014;SDS011;6573;57.696;11.950;2022-10-04T15:53:24;10.83;;;3.20;;
13014;SDS011;6573;57.696;11.950;2022-10-04T16:05:21;9.47;;;2.60;;
13014;SDS011;6573;57.696;11.950;2022-10-04T16:07:56;15.10;;;3.47;;
13014;SDS011;6573;57.696;11.950;2022-10-04T16:10:53;19.63;;;3.20;;
13014;SDS011;6573;57.696;11.950;2022-10-04T16:13:30;15.47;;;3.20;;
13014;SDS011;6573;57.696;11.950;2022-10-04T16:16:17;11.10;;;2.97;;
13014;SDS011;6573;57.696;11.950;2022-10-04T16:19:00;11.10;;;2.83;;
13014;SDS011;6573;57.696;11.950;2022-10-04T16:21:48;12.67;;;2.40;;
13014;SDS011;6573;57.696;11.950;2022-10-04T16:24:27;13.23;;;3.00;;
13014;SDS011;6573;57.696;11.950;2022-10-04T16:27:12;12.90;;;3.10;;
13014;SDS011;6573;57.696;11.950;2022-10-04T16:30:17;17.50;;;3.73;;
13014;SDS011;6573;57.696;11.950;2022-10-04T16:33:01;12.60;;;2.73;;
13014;SDS011;6573;57.696;11.950;2022-10-04T16:35:47;12.50;;;3.63;;
13014;SDS011;6573;57.696;11.950;2022-10-04T16:38:30;11.50;;;3.13;;
13014;SDS011;6573;57.696;11.950;2022-10-04T16:41:28;9.57;;;2.73;;
13014;SDS011;6573;57.696;11.950;2022-10-04T16:44:02;18.37;;;3.50;;
13014;SDS011;6573;57.696;11.950;2022-10-04T16:46:39;11.43;;;3.00;;
13014;SDS011;6573;57.696;11.950;2022-10-04T16:49:15;15.70;;;3.53;;
13014;SDS011;6573;57.696;11.950;2022-10-04T16:51:52;15.87;;;3.50;;
13014;SDS011;6573;57.696;11.950;2022-10-04T16:54:39;14.50;;;3.30;;
13014;SDS011;6573;57.696;11.950;2022-10-04T16:57:23;17.20;;;3.50;;
13014;SDS011;6573;57.696;11.950;2022-10-04T16:59:53;17.90;;;4.07;;
13014;SDS011;6573;57.696;11.950;2022-10-04T17:02:35;22.27;;;3.53;;
13014;SDS011;6573;57.696;11.950;2022-10-04T17:05:31;19.27;;;3.83;;
13014;SDS011;6573;57.696;11.950;2022-10-04T17:08:24;21.63;;;4.17;;
13014;SDS011;6573;57.696;11.950;2022-10-04T17:14:21;18.33;;;3.50;;
13014;SDS011;6573;57.696;11.950;2022-10-04T17:17:14;17.73;;;4.03;;
13014;SDS011;6573;57.696;11.950;2022-10-04T17:19:49;20.60;;;4.77;;
13014;SDS011;6573;57.696;11.950;2022-10-04T17:22:26;20.80;;;4.47;;
13014;SDS011;6573;57.696;11.950;2022-10-04T17:25:11;20.90;;;4.70;;
13014;SDS011;6573;57.696;11.950;2022-10-04T17:27:49;18.13;;;4.50;;
13014;SDS011;6573;57.696;11.950;2022-10-04T17:30:22;19.00;;;4.27;;
13014;SDS011;6573;57.696;11.950;2022-10-04T17:35:57;18.53;;;4.70;;
13014;SDS011;6573;57.696;11.950;2022-10-04T17:38:39;19.13;;;4.63;;
13014;SDS011;6573;57.696;11.950;2022-10-04T17:41:14;18.83;;;4.93;;
13014;SDS011;6573;57.696;11.950;2022-10-04T17:44:09;18.73;;;4.83;;
13014;SDS011;6573;57.696;11.950;2022-10-04T17:46:56;19.67;;;4.67;;
13014;SDS011;6573;57.696;11.950;2022-10-04T17:49:30;19.10;;;4.77;;
13014;SDS011;6573;57.696;11.950;2022-10-04T17:52:28;18.57;;;5.17;;
13014;SDS011;6573;57.696;11.950;2022-10-04T17:55:20;20.90;;;5.07;;
13014;SDS011;6573;57.696;11.950;2022-10-04T17:57:54;17.70;;;4.40;;
13014;SDS011;6573;57.696;11.950;2022-10-04T18:03:30;22.07;;;5.00;;
13014;SDS011;6573;57.696;11.950;2022-10-04T18:06:10;23.80;;;6.00;;
13014;SDS011;6573;57.696;11.950;2022-10-04T18:08:45;24.73;;;5.03;;
13014;SDS011;6573;57.696;11.950;2022-10-04T18:11:23;25.57;;;6.67;;
13014;SDS011;6573;57.696;11.950;2022-10-04T18:13:58;14.43;;;5.00;;
13014;SDS011;6573;57.696;11.950;2022-10-04T18:16:31;27.90;;;5.40;;